createdAt,value
2023-04-17T00:01:30.184Z,10.93
2023-04-17T00:03:58.171Z,11.37
2023-04-17T00:06:24.894Z,11.73
2023-04-17T00:08:51.353Z,11.43
2023-04-17T00:11:18.866Z,11.13
2023-04-17T00:13:45.644Z,11.10
2023-04-17T00:16:13.872Z,10.67
2023-04-17T00:18:40.440Z,10.03
2023-04-17T00:21:06.979Z,11.27
2023-04-17T00:23:33.475Z,10.83
2023-04-17T00:25:59.917Z,11.07
2023-04-17T00:28:26.387Z,10.40
2023-04-17T00:30:52.959Z,10.83
2023-04-17T00:33:19.564Z,11.23
2023-04-17T00:35:46.020Z,11.30
2023-04-17T00:38:12.493Z,11.03
2023-04-17T00:40:39.007Z,10.63
2023-04-17T00:43:06.432Z,11.23
2023-04-17T00:45:32.958Z,10.80
2023-04-17T00:47:59.740Z,11.40
2023-04-17T00:50:26.654Z,10.47
2023-04-17T00:52:53.265Z,12.17
2023-04-17T00:55:19.754Z,10.77
2023-04-17T00:57:46.308Z,11.33
2023-04-17T01:00:13.037Z,12.50
2023-04-17T01:02:39.631Z,12.13
2023-04-17T01:05:06.372Z,12.03
2023-04-17T01:07:32.886Z,11.97
2023-04-17T01:09:59.421Z,12.17
2023-04-17T01:12:26.046Z,13.13
2023-04-17T01:14:52.902Z,12.03
2023-04-17T01:17:20.631Z,11.67
2023-04-17T01:19:47.501Z,12.73
2023-04-17T01:22:16.365Z,12.33
2023-04-17T01:24:43.004Z,12.50
2023-04-17T01:27:09.527Z,12.97
2023-04-17T01:29:36.128Z,12.30
2023-04-17T01:32:02.635Z,11.27
2023-04-17T01:34:29.150Z,12.93
2023-04-17T01:36:55.658Z,13.20
2023-04-17T01:39:22.282Z,13.27
2023-04-17T01:41:48.770Z,13.17
2023-04-17T01:44:15.240Z,13.77
2023-04-17T01:46:41.868Z,13.93
2023-04-17T01:49:08.397Z,13.60
2023-04-17T01:51:34.975Z,13.40
2023-04-17T01:54:01.502Z,13.90
2023-04-17T01:56:27.987Z,13.53
2023-04-17T01:58:54.490Z,12.83
2023-04-17T02:01:21.054Z,14.07
2023-04-17T02:03:47.838Z,14.50
2023-04-17T02:06:14.894Z,15.40
2023-04-17T02:08:41.375Z,14.13
2023-04-17T02:11:08.017Z,13.50
2023-04-17T02:13:34.556Z,14.07
2023-04-17T02:16:01.256Z,14.03
2023-04-17T02:18:28.394Z,14.73
2023-04-17T02:20:54.869Z,14.83
2023-04-17T02:23:21.389Z,14.40
2023-04-17T02:25:47.868Z,13.97
2023-04-17T02:28:14.332Z,13.63
2023-04-17T02:30:40.868Z,14.10
2023-04-17T02:33:07.519Z,15.83
2023-04-17T02:35:34.169Z,15.60
2023-04-17T02:38:00.679Z,15.00
2023-04-17T02:40:27.282Z,14.97
2023-04-17T02:42:53.783Z,14.60
2023-04-17T02:45:20.518Z,14.97
2023-04-17T02:47:47.097Z,14.57
2023-04-17T02:50:13.660Z,15.10
2023-04-17T02:52:40.116Z,15.80
2023-04-17T02:55:07.079Z,15.27
2023-04-17T02:57:33.568Z,14.83
2023-04-17T03:00:01.875Z,15.70
2023-04-17T03:02:30.669Z,15.40
2023-04-17T03:04:57.338Z,16.27
2023-04-17T03:07:23.869Z,15.20
2023-04-17T03:09:50.476Z,15.53
2023-04-17T03:12:17.081Z,15.90
2023-04-17T03:14:43.803Z,15.63
2023-04-17T03:17:10.391Z,16.83
2023-04-17T03:19:36.893Z,15.80
2023-04-17T03:22:03.661Z,16.80
2023-04-17T03:24:30.444Z,17.30
2023-04-17T03:26:57.656Z,16.60
2023-04-17T03:29:24.208Z,16.67
2023-04-17T03:31:50.803Z,18.07
2023-04-17T03:34:17.683Z,16.53
2023-04-17T03:36:44.343Z,18.03
2023-04-17T03:39:11.023Z,16.03
2023-04-17T03:41:38.749Z,16.90
2023-04-17T03:44:05.508Z,16.50
2023-04-17T03:46:32.186Z,17.03
2023-04-17T03:48:58.633Z,17.10
2023-04-17T03:51:25.095Z,16.97
2023-04-17T03:53:51.523Z,17.20
2023-04-17T03:56:18.275Z,18.10
2023-04-17T03:58:44.722Z,17.33
2023-04-17T04:01:12.696Z,18.20
2023-04-17T04:03:39.350Z,18.70
2023-04-17T04:06:07.359Z,19.47
2023-04-17T04:08:34.522Z,18.70
2023-04-17T04:11:02.234Z,20.13
2023-04-17T04:13:28.726Z,19.00
2023-04-17T04:15:55.316Z,20.33
2023-04-17T04:18:21.890Z,19.13
2023-04-17T04:20:48.491Z,19.87
2023-04-17T04:23:16.883Z,19.13
2023-04-17T04:25:43.635Z,18.80
2023-04-17T04:28:10.795Z,20.17
2023-04-17T04:30:38.992Z,19.80
2023-04-17T04:33:06.028Z,18.53
2023-04-17T04:35:32.752Z,20.03
2023-04-17T04:38:02.498Z,20.73
2023-04-17T04:40:30.718Z,19.43
2023-04-17T04:42:57.235Z,19.93
2023-04-17T04:45:23.810Z,21.27
2023-04-17T04:47:50.351Z,21.60
2023-04-17T04:50:17.705Z,19.93
2023-04-17T04:52:44.303Z,20.87
2023-04-17T04:55:10.870Z,21.50
2023-04-17T04:57:37.333Z,20.93
2023-04-17T05:00:06.662Z,22.60
2023-04-17T05:02:33.416Z,22.73
2023-04-17T05:05:00.395Z,22.30
2023-04-17T05:07:27.319Z,20.33
2023-04-17T05:09:53.807Z,23.60
2023-04-17T05:12:20.317Z,23.03
2023-04-17T05:14:47.994Z,23.27
2023-04-17T05:17:14.500Z,21.53
2023-04-17T05:19:41.186Z,23.07
2023-04-17T05:22:07.686Z,22.47
2023-04-17T05:24:34.154Z,21.17
2023-04-17T05:27:02.221Z,23.67
2023-04-17T05:29:28.738Z,22.83
2023-04-17T05:31:55.330Z,23.67
2023-04-17T05:34:21.799Z,22.53
2023-04-17T05:36:48.399Z,23.00
2023-04-17T05:39:14.908Z,24.10
2023-04-17T05:41:41.416Z,23.20
2023-04-17T05:44:08.372Z,23.00
2023-04-17T05:46:34.955Z,23.60
2023-04-17T05:49:01.593Z,22.93
2023-04-17T05:51:28.847Z,24.47
2023-04-17T05:53:55.476Z,22.93
2023-04-17T05:56:21.931Z,25.50
2023-04-17T05:58:48.432Z,25.13
2023-04-17T06:01:17.456Z,24.80
2023-04-17T06:03:44.171Z,28.17
2023-04-17T06:06:10.886Z,27.30
2023-04-17T06:08:37.354Z,29.30
2023-04-17T06:11:03.863Z,27.67
2023-04-17T06:13:30.662Z,29.57
2023-04-17T06:15:57.187Z,28.37
2023-04-17T06:18:23.759Z,27.57
2023-04-17T06:20:50.618Z,27.87
2023-04-17T06:23:17.180Z,28.87
2023-04-17T06:25:43.639Z,28.83
2023-04-17T06:28:10.470Z,27.23
2023-04-17T06:30:37.021Z,28.10
2023-04-17T06:33:03.625Z,29.20
2023-04-17T06:35:30.838Z,29.17
2023-04-17T06:37:57.309Z,28.77
2023-04-17T06:40:23.856Z,30.20
2023-04-17T06:42:50.429Z,28.87
2023-04-17T06:45:16.887Z,33.47
2023-04-17T06:47:45.465Z,36.17
2023-04-17T06:50:12.055Z,33.30
2023-04-17T06:52:38.512Z,35.93
2023-04-17T06:55:05.210Z,32.33
2023-04-17T06:57:34.071Z,32.87
2023-04-17T07:00:00.656Z,34.70
2023-04-17T07:02:28.862Z,33.33
2023-04-17T07:04:55.624Z,32.60
2023-04-17T07:07:22.199Z,30.45
2023-04-17T07:09:48.724Z,30.00
2023-04-17T07:12:15.663Z,31.50
2023-04-17T07:14:42.406Z,24.67
2023-04-17T07:17:08.915Z,25.00
2023-04-17T07:19:35.463Z,24.70
2023-04-17T07:22:02.020Z,26.37
2023-04-17T07:24:28.531Z,25.23
2023-04-17T07:26:55.072Z,24.30
2023-04-17T07:29:21.652Z,26.20
2023-04-17T07:31:48.274Z,25.80
2023-04-17T07:34:14.839Z,25.15
2023-04-17T07:36:41.386Z,25.88
2023-04-17T07:39:08.151Z,28.05
2023-04-17T07:41:34.698Z,28.08
2023-04-17T07:44:03.680Z,27.15
2023-04-17T07:46:30.230Z,29.85
2023-04-17T07:48:56.806Z,28.77
2023-04-17T07:51:23.360Z,32.13
2023-04-17T07:53:50.052Z,29.38
2023-04-17T07:56:17.815Z,27.40
2023-04-17T07:58:45.292Z,23.35
2023-04-17T08:01:12.016Z,24.17
2023-04-17T08:03:41.724Z,24.52
2023-04-17T08:06:08.668Z,24.17
2023-04-17T08:08:35.220Z,22.73
2023-04-17T08:11:01.824Z,25.48
2023-04-17T08:13:29.786Z,26.23
2023-04-17T08:15:56.291Z,24.88
2023-04-17T08:18:22.903Z,26.40
2023-04-17T08:20:49.410Z,24.27
2023-04-17T08:23:16.042Z,25.65
2023-04-17T08:25:42.545Z,24.45
2023-04-17T08:28:09.101Z,24.92
2023-04-17T08:30:35.658Z,24.45
2023-04-17T08:33:02.551Z,25.42
2023-04-17T08:35:29.108Z,24.48
2023-04-17T08:38:05.550Z,23.73
2023-04-17T08:40:38.869Z,24.65
2023-04-17T08:43:05.441Z,27.30
2023-04-17T08:45:32.219Z,25.77
2023-04-17T08:47:58.818Z,24.90
2023-04-17T08:50:25.356Z,22.83
2023-04-17T08:52:52.749Z,25.50
2023-04-17T08:55:20.573Z,23.85
2023-04-17T08:58:01.347Z,22.30
2023-04-17T09:00:28.457Z,22.27
2023-04-17T09:02:55.970Z,21.63
2023-04-17T09:05:22.925Z,20.88
2023-04-17T09:07:51.703Z,20.60
2023-04-17T09:10:18.490Z,18.63
2023-04-17T09:12:58.500Z,17.55
2023-04-17T09:15:24.979Z,18.77
2023-04-17T09:17:51.491Z,15.98
2023-04-17T09:20:18.011Z,16.15
2023-04-17T09:22:44.623Z,13.77
2023-04-17T09:25:17.800Z,14.80
2023-04-17T09:27:44.353Z,12.35
2023-04-17T09:30:11.016Z,12.93
2023-04-17T09:32:37.509Z,12.75
2023-04-17T09:35:04.481Z,10.75
2023-04-17T09:37:51.401Z,12.00
2023-04-17T09:40:21.203Z,10.93
2023-04-17T09:42:56.938Z,11.68
2023-04-17T09:45:24.533Z,12.70
2023-04-17T09:47:52.327Z,12.20
2023-04-17T09:50:21.880Z,11.07
2023-04-17T09:52:50.117Z,11.07
2023-04-17T09:55:17.064Z,10.93
2023-04-17T09:57:44.639Z,11.02
2023-04-17T10:00:14.850Z,11.18
2023-04-17T10:02:42.210Z,9.82
2023-04-17T10:05:10.522Z,8.80
2023-04-17T10:07:37.734Z,10.25
2023-04-17T10:10:09.387Z,10.25
2023-04-17T10:12:38.975Z,10.63
2023-04-17T10:15:08.761Z,9.98
2023-04-17T10:17:35.303Z,9.63
2023-04-17T10:20:20.344Z,10.38
2023-04-17T10:22:49.907Z,9.43
2023-04-17T10:25:17.478Z,9.70
2023-04-17T10:27:46.326Z,8.85
2023-04-17T10:30:13.285Z,8.20
2023-04-17T10:32:41.088Z,8.63
2023-04-17T10:35:16.961Z,8.40
2023-04-17T10:37:52.687Z,8.38
2023-04-17T10:40:22.254Z,8.13
2023-04-17T10:43:04.579Z,9.15
2023-04-17T10:45:49.625Z,7.57
2023-04-17T10:48:22.930Z,8.43
2023-04-17T10:50:49.611Z,7.47
2023-04-17T10:53:34.842Z,8.30
2023-04-17T10:56:02.416Z,9.25
2023-04-17T10:58:31.651Z,10.02
2023-04-17T11:01:00.444Z,8.57
2023-04-17T11:03:27.356Z,8.88
2023-04-17T11:05:54.005Z,8.90
2023-04-17T11:08:21.206Z,9.07
2023-04-17T11:10:52.189Z,9.02
2023-04-17T11:13:18.729Z,9.80
2023-04-17T11:15:45.431Z,9.30
2023-04-17T11:18:12.102Z,9.65
2023-04-17T11:20:38.721Z,10.25
2023-04-17T11:23:05.579Z,9.77
2023-04-17T11:25:33.852Z,10.80
2023-04-17T11:28:02.020Z,9.07
2023-04-17T11:30:32.246Z,7.80
2023-04-17T11:33:02.399Z,8.38
2023-04-17T11:35:29.949Z,9.00
2023-04-17T11:38:06.970Z,10.70
2023-04-17T11:40:33.653Z,11.75
2023-04-17T11:43:03.751Z,11.15
2023-04-17T11:45:34.310Z,11.02
2023-04-17T11:48:02.333Z,12.18
2023-04-17T11:50:29.807Z,11.18
2023-04-17T11:52:57.245Z,11.63
2023-04-17T11:55:23.824Z,5.28
2023-04-17T11:57:53.198Z,4.40
2023-04-17T12:00:21.991Z,5.07
2023-04-17T12:02:48.759Z,6.60
2023-04-17T12:05:15.944Z,10.27
2023-04-17T12:07:42.666Z,13.38
2023-04-17T12:10:09.217Z,14.70
2023-04-17T12:12:35.798Z,14.05
2023-04-17T12:15:03.011Z,16.92
2023-04-17T12:17:29.585Z,16.80
2023-04-17T12:19:56.190Z,14.23
2023-04-17T12:22:23.435Z,11.95
2023-04-17T12:24:50.117Z,15.32
2023-04-17T12:27:17.401Z,14.65
2023-04-17T12:29:44.938Z,12.98
2023-04-17T12:32:11.860Z,14.85
2023-04-17T12:34:38.649Z,13.38
2023-04-17T12:37:05.735Z,16.83
2023-04-17T12:39:32.926Z,20.77
2023-04-17T12:41:59.479Z,18.85
2023-04-17T12:44:25.996Z,21.80
2023-04-17T12:46:52.645Z,21.35
2023-04-17T12:49:20.588Z,21.50
2023-04-17T12:51:47.162Z,21.50
2023-04-17T12:54:13.836Z,22.20
2023-04-17T12:56:40.910Z,22.40
2023-04-17T12:59:07.462Z,21.98
2023-04-17T13:01:34.141Z,17.50
2023-04-17T13:04:00.999Z,15.57
2023-04-17T13:06:28.285Z,15.98
2023-04-17T13:08:54.835Z,16.00
2023-04-17T13:11:21.887Z,14.82
2023-04-17T13:13:48.366Z,16.35
2023-04-17T13:16:14.843Z,15.68
2023-04-17T13:18:41.430Z,13.57
2023-04-17T13:21:08.334Z,14.63
2023-04-17T13:23:34.834Z,15.23
2023-04-17T13:26:01.419Z,12.95
2023-04-17T13:28:28.050Z,15.52
2023-04-17T13:30:54.582Z,14.43
2023-04-17T13:33:21.194Z,14.52
2023-04-17T13:35:48.014Z,14.35
2023-04-17T13:38:14.591Z,13.43
2023-04-17T13:40:41.849Z,14.77
2023-04-17T13:43:09.259Z,13.60
2023-04-17T13:45:36.168Z,14.32
2023-04-17T13:48:02.771Z,13.05
2023-04-17T13:50:29.350Z,13.55
2023-04-17T13:52:55.825Z,14.95
2023-04-17T13:55:22.290Z,13.98
2023-04-17T13:57:48.916Z,12.35
2023-04-17T14:00:15.633Z,13.90
2023-04-17T14:02:42.827Z,14.25
2023-04-17T14:05:09.868Z,16.30
2023-04-17T14:07:36.480Z,18.05
2023-04-17T14:10:03.215Z,18.27
2023-04-17T14:12:29.855Z,19.58
2023-04-17T14:14:58.307Z,20.58
2023-04-17T14:17:25.112Z,20.25
2023-04-17T14:19:52.646Z,18.80
2023-04-17T14:22:19.230Z,17.25
2023-04-17T14:24:45.686Z,17.25
2023-04-17T14:27:12.293Z,12.80
2023-04-17T14:29:38.786Z,12.40
2023-04-17T14:32:05.475Z,10.23
2023-04-17T14:34:31.947Z,10.93
2023-04-17T14:36:58.540Z,11.88
2023-04-17T14:39:25.058Z,11.82
2023-04-17T14:41:52.001Z,13.70
2023-04-17T14:44:18.676Z,14.90
2023-04-17T14:46:45.285Z,9.48
2023-04-17T14:49:12.095Z,9.30
2023-04-17T14:51:38.794Z,9.10
2023-04-17T14:54:06.579Z,9.10
2023-04-17T14:56:33.091Z,9.57
2023-04-17T14:58:59.593Z,8.98
2023-04-17T15:01:26.292Z,8.57
2023-04-17T15:03:53.082Z,10.75
2023-04-17T15:06:20.154Z,12.02
2023-04-17T15:08:46.637Z,13.98
2023-04-17T15:11:13.137Z,14.55
2023-04-17T15:13:40.600Z,10.57
2023-04-17T15:16:07.885Z,11.73
2023-04-17T15:18:36.174Z,12.98
2023-04-17T15:21:02.646Z,13.87
2023-04-17T15:23:29.981Z,15.02
2023-04-17T15:25:57.851Z,13.77
2023-04-17T15:28:24.709Z,16.20
2023-04-17T15:30:51.196Z,12.48
2023-04-17T15:33:17.722Z,11.93
2023-04-17T15:35:44.349Z,12.70
2023-04-17T15:38:10.949Z,11.80
2023-04-17T15:40:37.499Z,12.52
2023-04-17T15:43:04.123Z,13.13
2023-04-17T15:45:30.693Z,15.57
2023-04-17T15:47:58.220Z,13.60
2023-04-17T15:50:24.775Z,15.07
2023-04-17T15:52:51.294Z,16.03
2023-04-17T15:55:17.913Z,16.10
2023-04-17T15:57:44.377Z,18.50
2023-04-17T16:00:11.226Z,19.23
2023-04-17T16:02:37.831Z,22.17
2023-04-17T16:05:04.639Z,24.67
2023-04-17T16:07:31.598Z,21.93
2023-04-17T16:09:58.284Z,21.17
2023-04-17T16:12:24.933Z,21.08
2023-04-17T16:14:51.429Z,15.47
2023-04-17T16:17:17.939Z,16.53
2023-04-17T16:19:44.623Z,14.27
2023-04-17T16:22:11.195Z,17.92
2023-04-17T16:24:37.660Z,19.57
2023-04-17T16:27:06.377Z,21.60
2023-04-17T16:29:32.868Z,19.90
2023-04-17T16:31:59.773Z,21.03
2023-04-17T16:34:26.406Z,21.63
2023-04-17T16:36:52.980Z,21.17
2023-04-17T16:39:19.505Z,22.27
2023-04-17T16:41:46.001Z,20.77
2023-04-17T16:44:13.034Z,21.77
2023-04-17T16:47:02.968Z,20.17
2023-04-17T16:49:26.325Z,20.33
2023-04-17T16:51:52.836Z,18.47
2023-04-17T16:54:21.566Z,17.30
2023-04-17T16:56:48.258Z,14.83
2023-04-17T16:59:14.947Z,16.87
2023-04-17T17:01:41.510Z,17.30
2023-04-17T17:04:08.171Z,16.43
2023-04-17T17:06:34.726Z,16.70
2023-04-17T17:09:01.301Z,16.90
2023-04-17T17:11:27.850Z,15.30
2023-04-17T17:13:54.431Z,14.52
2023-04-17T17:16:23.843Z,13.03
2023-04-17T17:18:50.514Z,13.20
2023-04-17T17:21:17.059Z,12.00
2023-04-17T17:23:43.605Z,10.60
2023-04-17T17:26:10.186Z,8.43
2023-04-17T17:28:36.845Z,8.73
2023-04-17T17:31:04.023Z,9.30
2023-04-17T17:33:32.221Z,8.93
2023-04-17T17:35:59.071Z,10.53
2023-04-17T17:38:28.613Z,10.80
2023-04-17T17:40:56.160Z,10.43
2023-04-17T17:43:22.813Z,12.53
2023-04-17T17:45:49.478Z,12.40
2023-04-17T17:48:16.952Z,13.20
2023-04-17T17:50:43.549Z,13.97
2023-04-17T17:53:10.450Z,15.03
2023-04-17T17:55:38.115Z,12.73
2023-04-17T17:58:08.030Z,14.57
2023-04-17T18:00:34.640Z,13.60
2023-04-17T18:03:01.377Z,10.43
2023-04-17T18:05:27.981Z,10.27
2023-04-17T18:07:54.461Z,9.57
2023-04-17T18:10:21.051Z,9.93
2023-04-17T18:12:47.758Z,9.23
2023-04-17T18:15:14.256Z,9.73
2023-04-17T18:17:40.827Z,9.93
2023-04-17T18:20:07.837Z,14.73
2023-04-17T18:22:34.453Z,16.33
2023-04-17T18:25:01.005Z,17.57
2023-04-17T18:27:27.462Z,17.30
2023-04-17T18:29:53.916Z,16.43
2023-04-17T18:32:20.466Z,12.80
2023-04-17T18:34:49.304Z,12.60
2023-04-17T18:37:18.000Z,10.43
2023-04-17T18:39:44.954Z,11.30
2023-04-17T18:42:11.579Z,10.10
2023-04-17T18:44:38.151Z,9.30
2023-04-17T18:47:04.786Z,9.10
2023-04-17T18:49:31.474Z,10.57
2023-04-17T18:51:58.075Z,10.10
2023-04-17T18:54:24.589Z,10.20
2023-04-17T18:56:51.143Z,11.43
2023-04-17T18:59:20.129Z,12.57
2023-04-17T19:01:46.694Z,13.17
2023-04-17T19:04:13.999Z,13.93
2023-04-17T19:06:41.072Z,11.67
2023-04-17T19:09:07.866Z,11.57
2023-04-17T19:11:34.398Z,11.77
2023-04-17T19:14:00.896Z,11.30
2023-04-17T19:16:27.471Z,11.17
2023-04-17T19:18:54.470Z,8.93
2023-04-17T19:21:21.060Z,9.70
2023-04-17T19:23:48.040Z,9.83
2023-04-17T19:26:15.894Z,8.77
2023-04-17T19:28:42.460Z,8.43
2023-04-17T19:31:09.081Z,8.90
2023-04-17T19:33:35.669Z,8.60
2023-04-17T19:36:05.309Z,7.93
2023-04-17T19:38:31.927Z,8.00
2023-04-17T19:41:17.922Z,9.83
2023-04-17T19:43:44.895Z,9.43
2023-04-17T19:46:13.459Z,8.47
2023-04-17T19:48:40.383Z,9.23
2023-04-17T19:51:07.020Z,8.90
2023-04-17T19:53:36.865Z,8.60
2023-04-17T19:56:03.847Z,8.70
2023-04-17T19:58:30.981Z,8.33
2023-04-17T20:00:58.190Z,8.23
2023-04-17T20:03:28.547Z,9.50
2023-04-17T20:05:55.258Z,8.77
2023-04-17T20:08:21.762Z,8.97
2023-04-17T20:10:48.247Z,8.60
2023-04-17T20:13:14.860Z,8.33
2023-04-17T20:15:41.447Z,8.80
2023-04-17T20:18:08.864Z,7.70
2023-04-17T20:20:36.772Z,7.93
2023-04-17T20:23:03.654Z,7.60
2023-04-17T20:25:30.480Z,8.10
2023-04-17T20:27:57.018Z,6.07
2023-04-17T20:30:23.687Z,5.43
2023-04-17T20:32:51.419Z,7.07
2023-04-17T20:35:18.089Z,6.73
2023-04-17T20:37:44.733Z,6.83
2023-04-17T20:40:12.226Z,6.13
2023-04-17T20:42:38.823Z,5.57
2023-04-17T20:45:07.129Z,5.73
2023-04-17T20:47:33.701Z,5.60
2023-04-17T20:50:00.227Z,4.93
2023-04-17T20:52:26.866Z,5.90
2023-04-17T20:54:53.561Z,4.33
2023-04-17T20:57:20.123Z,6.73
2023-04-17T20:59:46.589Z,8.63
2023-04-17T21:02:15.072Z,9.53
2023-04-17T21:04:41.756Z,10.53
2023-04-17T21:07:08.353Z,10.10
2023-04-17T21:09:34.880Z,10.67
2023-04-17T21:12:02.102Z,11.60
2023-04-17T21:14:29.689Z,9.87
2023-04-17T21:16:58.554Z,9.13
2023-04-17T21:19:27.344Z,8.60
2023-04-17T21:21:54.241Z,8.77
2023-04-17T21:24:21.043Z,8.10
2023-04-17T21:26:47.593Z,8.60
2023-04-17T21:29:14.827Z,8.43
2023-04-17T21:31:41.648Z,9.40
2023-04-17T21:34:08.229Z,9.40
2023-04-17T21:36:34.807Z,8.17
2023-04-17T21:39:01.394Z,8.80
2023-04-17T21:41:27.969Z,7.57
2023-04-17T21:43:54.660Z,6.10
2023-04-17T21:46:21.192Z,6.90
2023-04-17T21:48:47.691Z,7.80
2023-04-17T21:51:14.349Z,8.07
2023-04-17T21:53:40.872Z,8.80
2023-04-17T21:56:08.420Z,7.57
2023-04-17T21:58:35.006Z,6.27
2023-04-17T22:01:01.465Z,5.67
2023-04-17T22:03:28.122Z,4.90
2023-04-17T22:05:56.723Z,5.43
2023-04-17T22:08:23.384Z,4.40
2023-04-17T22:10:49.893Z,4.60
2023-04-17T22:13:16.432Z,4.03
2023-04-17T22:15:43.485Z,4.07
2023-04-17T22:18:09.963Z,3.90
2023-04-17T22:20:36.480Z,3.93
2023-04-17T22:23:03.035Z,3.93
2023-04-17T22:25:29.531Z,4.07
2023-04-17T22:27:56.055Z,5.37
2023-04-17T22:30:22.735Z,5.17
2023-04-17T22:32:49.287Z,4.47
2023-04-17T22:35:15.886Z,4.53
2023-04-17T22:37:42.351Z,4.53
2023-04-17T22:40:09.056Z,4.63
2023-04-17T22:42:53.815Z,4.77
2023-04-17T22:45:20.394Z,5.27
2023-04-17T22:47:46.980Z,4.07
2023-04-17T22:50:14.431Z,5.60
2023-04-17T22:52:41.144Z,4.53
2023-04-17T22:55:07.937Z,4.97
2023-04-17T22:57:34.491Z,5.60
2023-04-17T23:00:01.014Z,6.13
2023-04-17T23:02:27.643Z,5.80
2023-04-17T23:04:54.223Z,5.90
2023-04-17T23:07:20.808Z,6.40
2023-04-17T23:10:25.039Z,5.47
2023-04-17T23:12:52.472Z,6.63
2023-04-17T23:15:19.046Z,7.23
2023-04-17T23:17:45.905Z,6.43
2023-04-17T23:20:12.811Z,6.50
2023-04-17T23:22:39.574Z,6.90
2023-04-17T23:25:06.694Z,6.10
2023-04-17T23:27:33.231Z,6.73
2023-04-17T23:29:59.735Z,6.60
2023-04-17T23:32:26.427Z,6.03
2023-04-17T23:34:52.943Z,6.13
2023-04-17T23:37:19.496Z,6.17
2023-04-17T23:39:45.982Z,6.10
2023-04-17T23:42:12.470Z,6.63
2023-04-17T23:44:38.944Z,6.57
2023-04-17T23:47:06.317Z,6.20
2023-04-17T23:49:33.332Z,6.07
2023-04-17T23:51:59.818Z,6.70
2023-04-17T23:54:26.331Z,6.63
2023-04-17T23:56:53.726Z,6.60
2023-04-17T23:59:20.506Z,6.07
